Time;durP1;ratioP1;P1;durP2;ratioP2;P2;SDS_P1;SDS_P2;PMS_P1;PMS_P2;Temp;Humidity;BMP_temperature;BMP_pressure;BME280_temperature;BME280_humidity;BME280_pressure;Samples;Min_cycle;Max_cycle;Signal;HPM_P1;HPM_P2
2022/02/11 00:02:18;0.00;0.00;0.62;0.00;0.00;0.62;2.57;1.60;;;22.30;27.50;;;;;;2245546;61;20429;-61
2022/02/11 00:05:32;0.00;0.00;0.62;0.00;0.00;0.62;2.80;1.53;;;22.30;27.50;;;;;;2246181;61;20483;-61
2022/02/11 00:08:13;0.00;0.00;0.62;0.00;0.00;0.62;3.50;2.20;;;22.20;27.40;;;;;;2245669;61;20592;-62
2022/02/11 00:10:58;0.00;0.00;0.62;0.00;0.00;0.62;2.17;1.73;;;22.20;27.40;;;;;;2245143;61;20365;-60
2022/02/11 00:13:42;0.00;0.00;0.62;0.00;0.00;0.62;3.27;1.90;;;22.20;27.30;;;;;;2248330;61;20382;-63
2022/02/11 00:16:27;0.00;0.00;0.62;0.00;0.00;0.62;5.10;1.83;;;22.10;27.30;;;;;;2245629;61;20469;-63
2022/02/11 00:19:12;0.00;0.00;0.62;0.00;0.00;0.62;4.40;2.13;;;22.10;27.40;;;;;;2245630;61;20377;-62
2022/02/11 00:21:56;0.00;0.00;0.62;0.00;0.00;0.62;2.90;1.87;;;22.10;27.40;;;;;;2245747;61;20361;-61
2022/02/11 00:24:42;0.00;0.00;0.62;0.00;0.00;0.62;2.30;1.60;;;22.10;27.90;;;;;;2245235;61;20574;-62
2022/02/11 00:36:12;0.00;0.00;0.62;0.00;0.00;0.62;2.57;1.80;;;21.90;27.30;;;;;;2245760;61;20389;-62
2022/02/11 01:03:11;0.00;0.00;0.62;0.00;0.00;0.62;5.10;2.00;;;21.70;27.00;;;;;;2244905;61;20429;-62
2022/02/11 01:05:56;0.00;0.00;0.62;0.00;0.00;0.62;2.33;1.77;;;21.60;26.90;;;;;;2245639;61;20362;-62
2022/02/11 01:08:41;0.00;0.00;0.62;0.00;0.00;0.62;3.97;1.47;;;21.60;26.90;;;;;;2245243;61;20501;-63
2022/02/11 01:11:39;0.00;0.00;0.62;0.00;0.00;0.62;2.80;1.53;;;21.60;26.90;;;;;;2245566;61;20357;-62
2022/02/11 01:14:36;0.00;0.00;0.62;0.00;0.00;0.62;3.93;1.40;;;21.50;26.90;;;;;;2245601;61;20410;-60
2022/02/11 01:17:33;0.00;0.00;0.62;0.00;0.00;0.62;2.60;1.40;;;21.50;26.80;;;;;;2244661;61;20381;-60
2022/02/11 01:20:26;0.00;0.00;0.62;0.00;0.00;0.62;5.23;2.00;;;21.50;26.80;;;;;;2245879;61;20366;-63
2022/02/11 01:53:51;0.00;0.00;0.62;0.00;0.00;0.62;2.53;1.67;;;21.20;26.70;;;;;;2244816;61;20377;-62
2022/02/11 01:59:51;0.00;0.00;0.62;0.00;0.00;0.62;3.97;1.90;;;21.10;26.70;;;;;;2245270;61;20385;-62
2022/02/11 02:03:11;0.00;0.00;0.62;0.00;0.00;0.62;1.87;1.20;;;21.20;26.80;;;;;;2245216;61;20698;-62
2022/02/11 02:12:18;0.00;0.00;0.62;0.00;0.00;0.62;4.10;1.77;;;21.10;26.50;;;;;;2245736;61;20479;-63
2022/02/11 02:30:30;0.00;0.00;0.62;0.00;0.00;0.62;2.90;1.77;;;20.90;26.30;;;;;;2245243;61;20424;-61
2022/02/11 02:35:52;0.00;0.00;0.62;0.00;0.00;0.62;5.00;2.20;;;20.90;26.30;;;;;;2245289;61;20361;-61
2022/02/11 02:57:07;0.00;0.00;0.62;0.00;0.00;0.62;3.97;2.03;;;20.70;26.40;;;;;;2245409;61;20373;-62
2022/02/11 03:00:10;0.00;0.00;0.62;0.00;0.00;0.62;4.37;2.03;;;20.70;26.40;;;;;;2244746;61;20654;-61
2022/02/11 03:15:51;0.00;0.00;0.62;0.00;0.00;0.62;4.50;1.90;;;20.60;26.40;;;;;;2245194;61;20725;-61
2022/02/11 03:49:47;0.00;0.00;0.62;0.00;0.00;0.62;3.50;2.53;;;20.40;26.30;;;;;;2249914;61;20457;-62
2022/02/11 03:54:04;0.00;0.00;0.62;0.00;0.00;0.62;3.03;2.07;;;20.40;26.20;;;;;;2248968;61;20408;-62
2022/02/11 03:56:20;0.00;0.00;0.62;0.00;0.00;0.62;4.00;2.77;;;20.40;26.20;;;;;;2249491;61;20744;-62
2022/02/11 04:56:52;0.00;0.00;0.62;0.00;0.00;0.62;6.80;2.90;;;19.70;25.70;;;;;;2249585;61;20440;-61
2022/02/11 04:59:38;0.00;0.00;0.62;0.00;0.00;0.62;5.50;2.67;;;19.70;25.70;;;;;;2248735;61;20400;-60
2022/02/11 05:02:25;0.00;0.00;0.62;0.00;0.00;0.62;7.43;4.13;;;19.70;25.70;;;;;;2249940;61;20433;-60
2022/02/11 05:05:12;0.00;0.00;0.62;0.00;0.00;0.62;4.50;3.10;;;19.60;25.50;;;;;;2249217;61;20670;-60
2022/02/11 05:08:01;0.00;0.00;0.62;0.00;0.00;0.62;4.60;2.50;;;19.60;25.50;;;;;;2248360;61;20736;-60
2022/02/11 05:10:49;0.00;0.00;0.62;0.00;0.00;0.62;3.80;2.40;;;19.60;25.50;;;;;;2249652;61;20720;-58
2022/02/11 05:13:34;0.00;0.00;0.62;0.00;0.00;0.62;3.23;2.40;;;19.50;25.50;;;;;;2247437;61;20370;-61
2022/02/11 05:16:18;0.00;0.00;0.62;0.00;0.00;0.62;4.93;3.00;;;19.60;25.70;;;;;;2246290;61;20380;-59
2022/02/11 05:19:04;0.00;0.00;0.62;0.00;0.00;0.62;6.73;3.00;;;19.50;25.60;;;;;;2249442;61;20380;-61
2022/02/11 05:21:49;0.00;0.00;0.62;0.00;0.00;0.62;3.37;2.73;;;19.50;25.70;;;;;;2249262;61;20372;-59
2022/02/11 05:24:34;0.00;0.00;0.62;0.00;0.00;0.62;4.60;3.63;;;19.50;25.70;;;;;;2249713;61;20752;-61
2022/02/11 05:27:18;0.00;0.00;0.62;0.00;0.00;0.62;4.73;3.80;;;19.50;25.70;;;;;;2249152;61;20389;-61
2022/02/11 05:30:05;0.00;0.00;0.62;0.00;0.00;0.62;7.23;3.60;;;19.40;25.60;;;;;;2245957;61;20725;-61
2022/02/11 05:32:49;0.00;0.00;0.62;0.00;0.00;0.62;6.57;4.63;;;19.40;25.60;;;;;;2320498;53;20437;-59
2022/02/11 05:35:38;0.00;0.00;0.62;0.00;0.00;0.62;5.97;4.60;;;19.40;25.50;;;;;;2244849;61;20358;-58
2022/02/11 05:38:23;0.00;0.00;0.62;0.00;0.00;0.62;6.10;5.13;;;19.30;25.20;;;;;;2245817;61;20374;-58
2022/02/11 05:41:10;0.00;0.00;0.62;0.00;0.00;0.62;7.03;4.70;;;19.30;25.10;;;;;;2245405;61;20381;-58
2022/02/11 05:43:56;0.00;0.00;0.62;0.00;0.00;0.62;6.93;5.40;;;19.20;24.90;;;;;;2244897;61;20396;-58
2022/02/11 05:46:40;0.00;0.00;0.62;0.00;0.00;0.62;7.40;5.87;;;19.20;24.80;;;;;;2245804;61;20434;-60
2022/02/11 05:49:25;0.00;0.00;0.62;0.00;0.00;0.62;10.60;5.80;;;19.10;24.60;;;;;;2245393;61;20384;-57
2022/02/11 05:52:10;0.00;0.00;0.62;0.00;0.00;0.62;8.00;6.60;;;19.00;24.50;;;;;;2245469;61;20408;-59
2022/02/11 05:54:55;0.00;0.00;0.62;0.00;0.00;0.62;8.77;6.67;;;19.00;24.50;;;;;;2245378;61;20358;-59
2022/02/11 05:57:39;0.00;0.00;0.62;0.00;0.00;0.62;9.10;5.97;;;18.90;24.40;;;;;;2244704;61;20389;-58
2022/02/11 06:00:26;0.00;0.00;0.62;0.00;0.00;0.62;11.20;6.13;;;18.80;24.40;;;;;;2245644;61;20505;-57
2022/02/11 06:03:10;0.00;0.00;0.62;0.00;0.00;0.62;6.40;5.17;;;18.70;24.50;;;;;;2245644;61;20662;-59
2022/02/11 06:05:55;0.00;0.00;0.62;0.00;0.00;0.62;7.83;4.73;;;18.70;25.30;;;;;;2244710;61;20705;-61
2022/02/11 06:08:41;0.00;0.00;0.62;0.00;0.00;0.62;5.17;3.60;;;18.60;24.90;;;;;;2245620;61;20799;-61
2022/02/11 06:11:29;0.00;0.00;0.62;0.00;0.00;0.62;3.67;3.30;;;18.60;25.20;;;;;;2245383;61;20417;-61
2022/02/11 06:14:14;0.00;0.00;0.62;0.00;0.00;0.62;4.10;3.40;;;18.60;25.30;;;;;;2245449;61;20385;-62
2022/02/11 06:16:58;0.00;0.00;0.62;0.00;0.00;0.62;4.30;2.83;;;18.60;25.40;;;;;;2245360;61;20397;-61
2022/02/11 06:19:45;0.00;0.00;0.62;0.00;0.00;0.62;3.47;2.80;;;18.70;25.50;;;;;;2244990;61;20798;-61
2022/02/11 06:22:29;0.00;0.00;0.62;0.00;0.00;0.62;3.80;2.53;;;18.70;25.70;;;;;;2245708;61;20705;-62
2022/02/11 06:25:16;0.00;0.00;0.62;0.00;0.00;0.62;3.20;2.70;;;18.80;25.80;;;;;;2245478;61;20365;-61
2022/02/11 06:28:00;0.00;0.00;0.62;0.00;0.00;0.62;4.30;2.60;;;18.80;25.80;;;;;;2244706;61;20498;-61
2022/02/11 06:30:45;0.00;0.00;0.62;0.00;0.00;0.62;2.90;2.30;;;18.80;25.80;;;;;;2245554;61;20409;-61
2022/02/11 06:33:29;0.00;0.00;0.62;0.00;0.00;0.62;3.13;2.50;;;18.90;25.80;;;;;;2245401;61;20466;-62
2022/02/11 06:36:14;0.00;0.00;0.62;0.00;0.00;0.62;3.57;2.30;;;18.90;25.80;;;;;;2245051;61;20385;-62
2022/02/11 06:38:59;0.00;0.00;0.62;0.00;0.00;0.62;2.20;2.00;;;19.00;25.90;;;;;;2245289;61;20753;-62
2022/02/11 06:41:45;0.00;0.00;0.62;0.00;0.00;0.62;3.27;2.10;;;19.00;25.90;;;;;;2245676;61;20398;-61
2022/02/11 06:44:29;0.00;0.00;0.62;0.00;0.00;0.62;2.83;1.93;;;19.00;25.90;;;;;;2246254;61;20408;-61
2022/02/11 06:47:14;0.00;0.00;0.62;0.00;0.00;0.62;2.30;1.80;;;19.10;26.00;;;;;;2246017;61;20361;-61
2022/02/11 06:49:59;0.00;0.00;0.62;0.00;0.00;0.62;2.80;1.80;;;19.10;26.00;;;;;;2245198;61;20389;-61
2022/02/11 06:52:44;0.00;0.00;0.62;0.00;0.00;0.62;2.80;2.00;;;19.10;26.00;;;;;;2246249;61;20365;-61
2022/02/11 06:55:29;0.00;0.00;0.62;0.00;0.00;0.62;2.43;2.00;;;19.20;26.00;;;;;;2246201;61;20581;-61
2022/02/11 06:58:15;0.00;0.00;0.62;0.00;0.00;0.62;3.23;2.00;;;19.20;26.00;;;;;;2245097;61;20401;-60
2022/02/11 07:01:00;0.00;0.00;0.62;0.00;0.00;0.62;3.07;2.53;;;19.20;26.10;;;;;;2245950;61;20710;-60
2022/02/11 07:03:44;0.00;0.00;0.62;0.00;0.00;0.62;2.00;1.80;;;19.30;26.10;;;;;;2245984;61;20412;-62
2022/02/11 07:06:29;0.00;0.00;0.62;0.00;0.00;0.62;1.83;1.63;;;19.30;26.10;;;;;;2245864;61;20613;-60
2022/02/11 07:09:14;0.00;0.00;0.62;0.00;0.00;0.62;1.97;1.63;;;19.30;26.10;;;;;;2245978;61;20421;-60
2022/02/11 07:11:58;0.00;0.00;0.62;0.00;0.00;0.62;2.90;1.70;;;19.30;26.10;;;;;;2245263;61;20361;-62
2022/02/11 07:14:44;0.00;0.00;0.62;0.00;0.00;0.62;2.77;1.90;;;19.40;26.20;;;;;;2246132;61;20405;-60
2022/02/11 07:17:30;0.00;0.00;0.62;0.00;0.00;0.62;2.40;1.80;;;19.40;26.20;;;;;;2245905;61;20405;-60
2022/02/11 07:20:15;0.00;0.00;0.62;0.00;0.00;0.62;2.00;1.67;;;19.40;26.20;;;;;;2245233;61;20374;-60
2022/02/11 07:23:00;0.00;0.00;0.62;0.00;0.00;0.62;3.57;1.63;;;19.50;26.30;;;;;;2246346;61;20409;-61
2022/02/11 07:25:45;0.00;0.00;0.62;0.00;0.00;0.62;3.27;1.70;;;19.50;26.30;;;;;;2245680;61;20369;-62
2022/02/11 07:28:29;0.00;0.00;0.62;0.00;0.00;0.62;2.40;1.60;;;19.50;26.30;;;;;;2245864;61;20457;-61
2022/02/11 07:31:15;0.00;0.00;0.62;0.00;0.00;0.62;1.80;1.40;;;19.50;26.30;;;;;;2245886;61;20722;-60
2022/02/11 07:34:00;0.00;0.00;0.62;0.00;0.00;0.62;2.53;1.30;;;19.60;26.30;;;;;;2245131;61;20358;-59
2022/02/11 07:36:44;0.00;0.00;0.62;0.00;0.00;0.62;1.50;1.20;;;19.60;26.30;;;;;;2245822;61;20410;-62
2022/02/11 07:39:30;0.00;0.00;0.62;0.00;0.00;0.62;2.23;1.60;;;19.60;26.30;;;;;;2245967;61;20388;-61
2022/02/11 07:42:15;0.00;0.00;0.62;0.00;0.00;0.62;1.90;1.30;;;19.60;26.80;;;;;;2245107;61;20365;-61
2022/02/11 07:45:00;0.00;0.00;0.62;0.00;0.00;0.62;1.90;1.40;;;19.60;26.30;;;;;;2246215;61;20365;-61
2022/02/11 07:47:46;0.00;0.00;0.62;0.00;0.00;0.62;2.90;1.87;;;19.70;26.40;;;;;;2245726;61;20389;-61
2022/02/11 07:50:31;0.00;0.00;0.62;0.00;0.00;0.62;1.93;1.40;;;19.70;26.40;;;;;;2245767;61;20366;-61
2022/02/11 07:53:16;0.00;0.00;0.62;0.00;0.00;0.62;1.97;1.27;;;19.70;26.40;;;;;;2245851;61;20397;-61
2022/02/11 07:56:00;0.00;0.00;0.62;0.00;0.00;0.62;1.93;1.20;;;19.70;26.40;;;;;;2245376;61;20777;-62
2022/02/11 07:58:45;0.00;0.00;0.62;0.00;0.00;0.62;1.80;1.23;;;19.70;26.40;;;;;;2245822;61;20388;-61
2022/02/11 08:01:30;0.00;0.00;0.62;0.00;0.00;0.62;2.10;1.50;;;19.70;26.40;;;;;;2245827;61;20365;-61
2022/02/11 08:04:16;0.00;0.00;0.62;0.00;0.00;0.62;2.63;1.63;;;19.80;26.50;;;;;;2245172;61;20416;-62
2022/02/11 08:07:00;0.00;0.00;0.62;0.00;0.00;0.62;2.27;1.40;;;19.80;26.50;;;;;;2246007;61;20494;-62
2022/02/11 08:09:45;0.00;0.00;0.62;0.00;0.00;0.62;1.50;1.07;;;19.80;26.50;;;;;;2245690;61;20433;-61
2022/02/11 08:12:34;0.00;0.00;0.62;0.00;0.00;0.62;2.30;1.33;;;19.80;26.50;;;;;;2245686;61;20378;-60
2022/02/11 08:15:19;0.00;0.00;0.62;0.00;0.00;0.62;1.70;1.10;;;19.80;26.50;;;;;;2245645;61;20713;-62
2022/02/11 08:18:04;0.00;0.00;0.62;0.00;0.00;0.62;1.50;1.20;;;19.90;26.50;;;;;;2245277;61;20394;-61
2022/02/11 08:20:50;0.00;0.00;0.62;0.00;0.00;0.62;2.33;1.50;;;19.90;26.50;;;;;;2246135;61;20393;-62
2022/02/11 08:23:34;0.00;0.00;0.62;0.00;0.00;0.62;1.50;1.13;;;19.90;26.50;;;;;;2245636;61;20475;-62
2022/02/11 08:26:19;0.00;0.00;0.62;0.00;0.00;0.62;1.60;1.20;;;19.90;26.50;;;;;;2245298;61;20389;-61
2022/02/11 08:29:04;0.00;0.00;0.62;0.00;0.00;0.62;1.67;1.10;;;19.90;26.40;;;;;;2245953;61;20618;-62
2022/02/11 08:31:49;0.00;0.00;0.62;0.00;0.00;0.62;3.10;1.40;;;19.90;26.40;;;;;;2245649;61;20361;-61
2022/02/11 08:34:33;0.00;0.00;0.62;0.00;0.00;0.62;1.73;1.10;;;19.90;26.50;;;;;;2245347;61;20397;-61
2022/02/11 08:37:19;0.00;0.00;0.62;0.00;0.00;0.62;1.50;1.20;;;20.00;26.50;;;;;;2245533;61;20397;-60
2022/02/11 08:40:06;0.00;0.00;0.62;0.00;0.00;0.62;2.20;1.20;;;20.00;26.40;;;;;;2245283;61;20410;-62
2022/02/11 08:42:51;0.00;0.00;0.62;0.00;0.00;0.62;1.67;1.00;;;20.00;26.40;;;;;;2245873;61;20455;-62
2022/02/11 08:45:37;0.00;0.00;0.62;0.00;0.00;0.62;1.70;1.00;;;20.00;26.40;;;;;;2245626;61;20369;-61
2022/02/11 08:48:22;0.00;0.00;0.62;0.00;0.00;0.62;1.70;0.90;;;20.00;26.40;;;;;;2244955;61;20392;-60
2022/02/11 08:51:07;0.00;0.00;0.62;0.00;0.00;0.62;2.17;1.00;;;20.00;26.40;;;;;;2245888;61;20405;-60
2022/02/11 08:53:53;0.00;0.00;0.62;0.00;0.00;0.62;2.07;1.20;;;20.00;26.40;;;;;;2245716;61;20409;-59
2022/02/11 08:56:39;0.00;0.00;0.62;0.00;0.00;0.62;1.60;1.00;;;20.00;26.40;;;;;;2245144;61;20761;-62
2022/02/11 08:59:24;0.00;0.00;0.62;0.00;0.00;0.62;1.53;1.10;;;20.10;26.40;;;;;;2245306;61;20389;-61
2022/02/11 09:02:11;0.00;0.00;0.62;0.00;0.00;0.62;1.53;0.90;;;20.00;26.40;;;;;;2245165;61;20401;-61
2022/02/11 09:04:55;0.00;0.00;0.62;0.00;0.00;0.62;1.70;1.07;;;20.10;26.40;;;;;;2245726;61;20361;-61
2022/02/11 09:07:40;0.00;0.00;0.62;0.00;0.00;0.62;1.50;0.90;;;20.10;26.40;;;;;;2245515;61;20719;-61
2022/02/11 09:10:27;0.00;0.00;0.62;0.00;0.00;0.62;1.80;1.10;;;20.10;26.40;;;;;;2244954;61;20365;-60
2022/02/11 09:13:12;0.00;0.00;0.62;0.00;0.00;0.62;1.47;0.93;;;20.10;26.40;;;;;;2246303;61;20442;-60
2022/02/11 09:15:57;0.00;0.00;0.62;0.00;0.00;0.62;1.70;1.10;;;20.10;26.40;;;;;;2245670;61;20346;-60
2022/02/11 09:18:42;0.00;0.00;0.62;0.00;0.00;0.62;2.13;1.07;;;20.10;26.40;;;;;;2244932;61;20425;-59
2022/02/11 09:21:26;0.00;0.00;0.62;0.00;0.00;0.62;1.60;1.00;;;20.10;26.40;;;;;;2245801;61;20393;-60
2022/02/11 09:24:11;0.00;0.00;0.62;0.00;0.00;0.62;1.60;0.90;;;20.10;26.40;;;;;;2245122;61;20371;-61
2022/02/11 09:26:57;0.00;0.00;0.62;0.00;0.00;0.62;1.67;1.00;;;20.10;26.40;;;;;;2245650;61;20408;-61
2022/02/11 09:29:41;0.00;0.00;0.62;0.00;0.00;0.62;2.47;1.30;;;20.10;26.40;;;;;;2245547;61;20534;-61
2022/02/11 09:32:26;0.00;0.00;0.62;0.00;0.00;0.62;1.70;0.90;;;20.20;26.90;;;;;;2244827;61;20622;-62
2022/02/11 09:35:12;0.00;0.00;0.62;0.00;0.00;0.62;1.80;0.90;;;20.20;26.40;;;;;;2245643;61;20398;-61
2022/02/11 09:37:58;0.00;0.00;0.62;0.00;0.00;0.62;2.27;0.90;;;20.20;26.40;;;;;;2245503;61;20397;-60
2022/02/11 09:40:46;0.00;0.00;0.62;0.00;0.00;0.62;1.40;0.83;;;20.20;26.40;;;;;;2244757;61;20368;-60
2022/02/11 09:43:33;0.00;0.00;0.62;0.00;0.00;0.62;2.03;1.00;;;20.20;26.40;;;;;;2245779;61;20801;-60
2022/02/11 09:46:18;0.00;0.00;0.62;0.00;0.00;0.62;1.70;1.00;;;20.20;26.40;;;;;;2245373;61;20591;-59
2022/02/11 09:49:04;0.00;0.00;0.62;0.00;0.00;0.62;1.90;1.20;;;20.20;26.40;;;;;;2244798;61;20405;-61
2022/02/11 09:51:53;0.00;0.00;0.62;0.00;0.00;0.62;1.80;1.23;;;20.20;26.40;;;;;;2245112;61;20369;-60
2022/02/11 09:54:37;0.00;0.00;0.62;0.00;0.00;0.62;2.53;0.90;;;20.30;26.40;;;;;;2244892;61;20642;-60
2022/02/11 09:57:22;0.00;0.00;0.62;0.00;0.00;0.62;1.90;0.90;;;20.30;26.40;;;;;;2245461;61;20422;-60
2022/02/11 10:00:10;0.00;0.00;0.62;0.00;0.00;0.62;1.37;0.80;;;20.30;26.40;;;;;;2245554;61;20377;-60
2022/02/11 10:02:57;0.00;0.00;0.62;0.00;0.00;0.62;1.63;0.90;;;20.30;26.40;;;;;;2244784;61;20413;-60
2022/02/11 10:05:42;0.00;0.00;0.62;0.00;0.00;0.62;1.93;0.90;;;20.30;26.40;;;;;;2245676;61;20442;-61
2022/02/11 10:08:29;0.00;0.00;0.62;0.00;0.00;0.62;1.60;0.90;;;20.20;26.30;;;;;;2245266;61;20385;-61
2022/02/11 10:11:15;0.00;0.00;0.62;0.00;0.00;0.62;1.57;0.80;;;20.20;26.30;;;;;;2245362;61;20360;-60
2022/02/11 10:14:23;0.00;0.00;0.62;0.00;0.00;0.62;1.90;0.80;;;20.30;26.40;;;;;;2245592;61;20364;-59
2022/02/11 10:17:19;0.00;0.00;0.62;0.00;0.00;0.62;1.90;1.00;;;20.30;26.40;;;;;;2244594;61;20385;-60
2022/02/11 10:20:08;0.00;0.00;0.62;0.00;0.00;0.62;1.47;0.80;;;20.30;26.40;;;;;;2245750;61;20413;-60
2022/02/11 10:23:10;0.00;0.00;0.62;0.00;0.00;0.62;1.20;0.70;;;20.30;26.40;;;;;;2245599;61;20362;-62
2022/02/11 10:25:59;0.00;0.00;0.62;0.00;0.00;0.62;1.50;0.80;;;20.30;26.40;;;;;;2245375;61;20405;-60
2022/02/11 10:28:47;0.00;0.00;0.62;0.00;0.00;0.62;1.30;0.70;;;20.30;26.40;;;;;;2245251;61;20461;-62
2022/02/11 10:31:35;0.00;0.00;0.62;0.00;0.00;0.62;1.50;1.10;;;20.30;26.40;;;;;;2244772;61;20413;-61
2022/02/11 10:34:20;0.00;0.00;0.62;0.00;0.00;0.62;1.40;0.70;;;20.30;26.40;;;;;;2245873;61;20382;-60
2022/02/11 10:37:10;0.00;0.00;0.62;0.00;0.00;0.62;1.63;0.90;;;20.30;26.40;;;;;;2245368;61;20385;-60
2022/02/11 10:39:57;0.00;0.00;0.62;0.00;0.00;0.62;1.50;0.77;;;20.30;26.40;;;;;;2244559;61;20458;-61
2022/02/11 10:42:44;0.00;0.00;0.62;0.00;0.00;0.62;1.50;1.00;;;20.30;26.40;;;;;;2248072;61;20396;-60
2022/02/11 10:45:32;0.00;0.00;0.62;0.00;0.00;0.62;1.40;0.73;;;20.30;26.40;;;;;;2245081;61;20374;-60
2022/02/11 10:48:18;0.00;0.00;0.62;0.00;0.00;0.62;1.40;0.70;;;20.40;26.50;;;;;;2245256;61;20425;-61
2022/02/11 10:51:06;0.00;0.00;0.62;0.00;0.00;0.62;1.30;0.80;;;20.30;26.40;;;;;;2245322;61;20362;-62
2022/02/11 10:53:50;0.00;0.00;0.62;0.00;0.00;0.62;1.73;1.20;;;20.40;26.50;;;;;;2244411;61;20362;-61
2022/02/11 10:56:39;0.00;0.00;0.62;0.00;0.00;0.62;1.70;0.70;;;20.40;26.50;;;;;;2245759;61;20606;-60
2022/02/11 10:59:27;0.00;0.00;0.62;0.00;0.00;0.62;1.57;0.80;;;20.40;26.50;;;;;;2245154;61;20474;-61
2022/02/11 11:02:15;0.00;0.00;0.62;0.00;0.00;0.62;1.40;0.70;;;20.40;26.50;;;;;;2244642;61;20450;-60
2022/02/11 11:04:59;0.00;0.00;0.62;0.00;0.00;0.62;1.57;0.73;;;20.40;26.50;;;;;;2245654;61;20366;-62
2022/02/11 11:07:46;0.00;0.00;0.62;0.00;0.00;0.62;1.40;0.80;;;20.40;26.50;;;;;;2244832;61;20366;-60
2022/02/11 11:10:32;0.00;0.00;0.62;0.00;0.00;0.62;1.30;0.80;;;20.40;26.50;;;;;;2245399;61;20354;-62
2022/02/11 11:13:18;0.00;0.00;0.62;0.00;0.00;0.62;2.17;0.90;;;20.40;26.50;;;;;;2245174;61;20389;-62
2022/02/11 11:16:06;0.00;0.00;0.62;0.00;0.00;0.62;1.50;0.80;;;20.40;26.50;;;;;;2244592;61;20438;-61
2022/02/11 11:18:51;0.00;0.00;0.62;0.00;0.00;0.62;1.20;0.70;;;20.50;26.50;;;;;;2245278;61;20457;-62
2022/02/11 11:21:39;0.00;0.00;0.62;0.00;0.00;0.62;1.87;0.90;;;20.40;26.50;;;;;;2245244;61;20358;-60
2022/02/11 11:24:25;0.00;0.00;0.62;0.00;0.00;0.62;1.63;0.80;;;20.50;26.50;;;;;;2244674;61;20435;-60
2022/02/11 11:27:09;0.00;0.00;0.62;0.00;0.00;0.62;1.50;0.90;;;20.50;26.50;;;;;;2246073;61;20374;-60
2022/02/11 11:30:19;0.00;0.00;0.62;0.00;0.00;0.62;1.30;0.70;;;20.50;26.50;;;;;;2245560;61;20397;-60
2022/02/11 11:33:23;0.00;0.00;0.62;0.00;0.00;0.62;1.67;0.90;;;20.50;26.50;;;;;;2246237;61;20365;-61
2022/02/11 11:36:10;0.00;0.00;0.62;0.00;0.00;0.62;1.77;0.90;;;20.50;26.50;;;;;;2245927;61;20366;-61
2022/02/11 11:38:58;0.00;0.00;0.62;0.00;0.00;0.62;1.60;0.93;;;20.50;26.50;;;;;;2245073;61;20773;-61
2022/02/11 11:41:58;0.00;0.00;0.62;0.00;0.00;0.62;1.30;0.77;;;20.50;26.50;;;;;;2246051;61;20561;-61
2022/02/11 11:44:52;0.00;0.00;0.62;0.00;0.00;0.62;1.97;1.00;;;20.50;26.50;;;;;;2245725;61;20374;-62
2022/02/11 11:47:43;0.00;0.00;0.62;0.00;0.00;0.62;1.30;0.80;;;20.50;26.50;;;;;;2245837;61;20393;-62
2022/02/11 11:50:31;0.00;0.00;0.62;0.00;0.00;0.62;1.40;0.77;;;20.50;26.50;;;;;;2245832;61;20402;-62
2022/02/11 11:53:25;0.00;0.00;0.62;0.00;0.00;0.62;1.20;0.70;;;20.50;26.50;;;;;;2245119;61;20370;-61
2022/02/11 11:56:35;0.00;0.00;0.62;0.00;0.00;0.62;1.50;0.70;;;20.60;26.60;;;;;;2245956;61;20361;-61
2022/02/11 11:59:23;0.00;0.00;0.62;0.00;0.00;0.62;1.50;0.90;;;20.50;26.50;;;;;;2245832;61;20405;-60
2022/02/11 12:02:11;0.00;0.00;0.62;0.00;0.00;0.62;1.20;0.70;;;20.50;26.50;;;;;;2245874;61;20745;-61
2022/02/11 12:04:57;0.00;0.00;0.62;0.00;0.00;0.62;1.33;0.70;;;20.60;26.60;;;;;;2245851;61;20616;-60
2022/02/11 12:07:41;0.00;0.00;0.62;0.00;0.00;0.62;1.50;0.80;;;20.60;26.60;;;;;;2245151;61;20426;-60
2022/02/11 12:10:26;0.00;0.00;0.62;0.00;0.00;0.62;1.40;0.70;;;20.60;26.50;;;;;;2246127;61;20484;-62
2022/02/11 12:13:12;0.00;0.00;0.62;0.00;0.00;0.62;1.60;0.80;;;20.60;26.60;;;;;;2245813;61;20576;-60
2022/02/11 12:15:58;0.00;0.00;0.62;0.00;0.00;0.62;1.40;0.87;;;20.60;26.60;;;;;;2245214;61;20377;-62
2022/02/11 12:18:46;0.00;0.00;0.62;0.00;0.00;0.62;1.30;0.80;;;20.60;26.60;;;;;;2245875;61;20416;-60
2022/02/11 12:21:31;0.00;0.00;0.62;0.00;0.00;0.62;1.83;1.07;;;20.60;26.60;;;;;;2245911;61;20366;-62
2022/02/11 12:27:30;0.00;0.00;0.62;0.00;0.00;0.62;1.37;0.83;;;20.60;26.60;;;;;;2245561;61;20356;-60
2022/02/11 12:30:18;0.00;0.00;0.62;0.00;0.00;0.62;1.40;0.83;;;20.60;26.50;;;;;;2244950;61;20792;-62
2022/02/11 12:33:03;0.00;0.00;0.62;0.00;0.00;0.62;2.00;0.97;;;20.70;26.70;;;;;;2245981;61;20361;-62
2022/02/11 12:35:50;0.00;0.00;0.62;0.00;0.00;0.62;2.00;0.93;;;20.70;26.60;;;;;;2245864;61;20365;-62
2022/02/11 12:38:36;0.00;0.00;0.62;0.00;0.00;0.62;1.40;0.90;;;20.70;26.60;;;;;;2244963;61;20469;-61
2022/02/11 12:41:21;0.00;0.00;0.62;0.00;0.00;0.62;2.67;0.93;;;20.70;26.60;;;;;;2245434;61;20401;-61
2022/02/11 12:44:06;0.00;0.00;0.62;0.00;0.00;0.62;1.70;0.90;;;20.70;26.60;;;;;;2245216;61;20381;-62
2022/02/11 12:46:51;0.00;0.00;0.62;0.00;0.00;0.62;1.53;0.90;;;20.70;26.60;;;;;;2245713;61;20378;-60
2022/02/11 12:49:46;0.00;0.00;0.62;0.00;0.00;0.62;1.40;0.73;;;20.70;26.60;;;;;;2245757;61;20749;-61
2022/02/11 12:52:36;0.00;0.00;0.62;0.00;0.00;0.62;1.83;1.17;;;20.70;26.60;;;;;;2244800;61;20497;-61
2022/02/11 12:55:22;0.00;0.00;0.62;0.00;0.00;0.62;1.90;0.90;;;20.70;26.60;;;;;;2245521;61;20401;-61
2022/02/11 12:58:09;0.00;0.00;0.62;0.00;0.00;0.62;1.60;1.03;;;20.70;26.60;;;;;;2245535;61;20884;-61
2022/02/11 13:00:55;0.00;0.00;0.62;0.00;0.00;0.62;2.20;1.40;;;20.70;26.60;;;;;;2245044;61;20631;-62
2022/02/11 13:03:47;0.00;0.00;0.62;0.00;0.00;0.62;1.90;1.07;;;20.70;26.60;;;;;;2245707;61;20374;-61
2022/02/11 13:06:34;0.00;0.00;0.62;0.00;0.00;0.62;2.20;1.43;;;20.70;26.60;;;;;;2245190;61;20385;-61
2022/02/11 13:09:21;0.00;0.00;0.62;0.00;0.00;0.62;1.60;0.90;;;20.70;26.60;;;;;;2245671;61;20385;-61
2022/02/11 13:12:07;0.00;0.00;0.62;0.00;0.00;0.62;1.90;1.00;;;20.80;26.70;;;;;;2245603;61;20741;-60
2022/02/11 13:14:53;0.00;0.00;0.62;0.00;0.00;0.62;1.53;1.03;;;20.80;26.70;;;;;;2244900;61;20608;-59
2022/02/11 13:17:38;0.00;0.00;0.62;0.00;0.00;0.62;1.70;1.20;;;20.80;26.70;;;;;;2245733;61;20381;-61
2022/02/11 13:20:27;0.00;0.00;0.62;0.00;0.00;0.62;2.40;1.30;;;20.80;26.60;;;;;;2245639;61;20366;-61
2022/02/11 13:23:17;0.00;0.00;0.62;0.00;0.00;0.62;1.53;1.00;;;20.80;26.60;;;;;;2244995;61;20591;-61
2022/02/11 13:26:12;0.00;0.00;0.62;0.00;0.00;0.62;1.70;1.00;;;20.80;26.60;;;;;;2245540;61;20479;-62
2022/02/11 13:28:57;0.00;0.00;0.62;0.00;0.00;0.62;1.70;1.03;;;20.80;26.60;;;;;;2245086;61;20417;-61
2022/02/11 13:31:46;0.00;0.00;0.62;0.00;0.00;0.62;1.60;1.10;;;20.80;26.60;;;;;;2245791;61;20397;-62
2022/02/11 13:34:32;0.00;0.00;0.62;0.00;0.00;0.62;2.07;1.17;;;20.80;26.60;;;;;;2245518;61;20365;-59
2022/02/11 13:37:17;0.00;0.00;0.62;0.00;0.00;0.62;1.97;1.00;;;20.80;26.60;;;;;;2244717;61;20639;-60
2022/02/11 13:40:25;0.00;0.00;0.62;0.00;0.00;0.62;1.80;1.10;;;20.80;26.60;;;;;;2245722;61;20424;-62
2022/02/11 13:43:10;0.00;0.00;0.62;0.00;0.00;0.62;1.40;0.90;;;20.80;26.60;;;;;;2245245;61;20369;-62
2022/02/11 13:45:57;0.00;0.00;0.62;0.00;0.00;0.62;1.60;0.97;;;20.80;26.60;;;;;;2245618;61;20584;-62
2022/02/11 13:48:52;0.00;0.00;0.62;0.00;0.00;0.62;1.40;0.80;;;20.80;26.60;;;;;;2245376;61;20446;-62
2022/02/11 13:51:39;0.00;0.00;0.62;0.00;0.00;0.62;1.70;1.10;;;20.90;26.70;;;;;;2244731;61;20594;-61
2022/02/11 13:54:23;0.00;0.00;0.62;0.00;0.00;0.62;2.00;1.10;;;20.90;26.70;;;;;;2245774;61;20417;-62
2022/02/11 13:57:21;0.00;0.00;0.62;0.00;0.00;0.62;1.77;0.90;;;20.90;26.60;;;;;;2245283;61;20421;-62
2022/02/11 14:00:31;0.00;0.00;0.62;0.00;0.00;0.62;1.93;1.07;;;20.90;26.70;;;;;;2244768;61;20386;-60
2022/02/11 14:03:21;0.00;0.00;0.62;0.00;0.00;0.62;1.60;0.83;;;20.90;26.60;;;;;;2245420;61;20356;-61
2022/02/11 14:06:06;0.00;0.00;0.62;0.00;0.00;0.62;1.60;1.00;;;20.90;26.60;;;;;;2244469;61;20450;-62
2022/02/11 14:08:50;0.00;0.00;0.62;0.00;0.00;0.62;1.80;0.93;;;20.90;26.60;;;;;;2245614;61;20765;-62
2022/02/11 14:11:38;0.00;0.00;0.62;0.00;0.00;0.62;1.83;0.93;;;20.90;26.60;;;;;;2245275;61;20392;-61
2022/02/11 14:14:25;0.00;0.00;0.62;0.00;0.00;0.62;2.43;1.40;;;20.90;26.60;;;;;;2244679;61;20397;-62
2022/02/11 14:17:09;0.00;0.00;0.62;0.00;0.00;0.62;1.60;1.13;;;21.00;26.70;;;;;;2245686;61;20592;-61
2022/02/11 14:19:54;0.00;0.00;0.62;0.00;0.00;0.62;2.13;1.00;;;21.00;26.70;;;;;;2245439;61;20656;-61
2022/02/11 14:22:38;0.00;0.00;0.62;0.00;0.00;0.62;1.73;1.00;;;21.00;26.70;;;;;;2245438;61;20361;-61
2022/02/11 14:25:23;0.00;0.00;0.62;0.00;0.00;0.62;1.70;1.10;;;21.00;26.70;;;;;;2245571;61;20572;-61
2022/02/11 14:28:07;0.00;0.00;0.62;0.00;0.00;0.62;1.83;1.10;;;21.00;26.70;;;;;;2244963;61;20377;-61
2022/02/11 14:30:56;0.00;0.00;0.62;0.00;0.00;0.62;1.70;1.30;;;21.00;26.60;;;;;;2245699;61;20401;-62
2022/02/11 14:33:41;0.00;0.00;0.62;0.00;0.00;0.62;1.53;0.90;;;21.00;26.70;;;;;;2245289;61;20430;-61
2022/02/11 14:36:25;0.00;0.00;0.62;0.00;0.00;0.62;2.37;1.27;;;21.00;26.70;;;;;;2244602;61;20439;-62